Time,TemperatureF,DewpointF,PressureIn,WindDirection,WindDirectionDegrees,WindSpeedMPH,WindSpeedGustMPH,Humidity,HourlyPrecipIn,Conditions,Clouds,dailyrainin,SoftwareType,DateUTC
2013-04-24 00:06:00,45.0,43.0,29.94,NW,318,9.0,14.0,92,0.02,,,0.00,weatherlink.com 1.10,2013-04-24 05:06:00,
2013-04-24 00:21:00,44.9,43.0,29.95,NW,310,7.0,13.0,93,0.03,,,0.01,weatherlink.com 1.10,2013-04-24 05:21:00,
2013-04-24 00:36:00,44.6,43.0,29.94,NNW,338,6.0,18.0,92,0.02,,,0.01,weatherlink.com 1.10,2013-04-24 05:36:00,
2013-04-24 00:51:00,44.4,42.0,29.94,NW,324,14.0,17.0,92,0.02,,,0.01,weatherlink.com 1.10,2013-04-24 05:51:00,
2013-04-24 01:06:00,44.3,42.0,29.93,NNW,329,13.0,19.0,92,0.00,,,0.01,weatherlink.com 1.10,2013-04-24 06:06:00,
2013-04-24 01:21:00,44.0,42.0,29.94,NW,324,7.0,15.0,92,0.00,,,0.01,weatherlink.com 1.10,2013-04-24 06:21:00,
2013-04-24 01:36:00,43.9,42.0,29.93,NW,321,7.0,14.0,91,0.01,,,0.02,weatherlink.com 1.10,2013-04-24 06:36:00,
2013-04-24 01:51:00,43.8,42.0,29.95,NW,304,8.0,12.0,92,0.01,,,0.02,weatherlink.com 1.10,2013-04-24 06:51:00,
2013-04-24 02:06:00,43.7,42.0,29.95,NW,323,8.0,14.0,92,0.01,,,0.02,weatherlink.com 1.10,2013-04-24 07:06:00,
2013-04-24 02:21:00,43.2,41.0,29.93,NW,325,11.0,13.0,92,0.01,,,0.02,weatherlink.com 1.10,2013-04-24 07:21:00,
2013-04-24 02:37:00,43.2,41.0,29.99,WNW,297,8.0,13.0,92,0.00,,,0.02,weatherlink.com 1.10,2013-04-24 07:37:00,
2013-04-24 02:52:00,42.9,41.0,29.93,North,5,5.0,15.0,92,0.04,,,0.06,weatherlink.com 1.10,2013-04-24 07:52:00,
2013-04-24 03:07:00,42.5,41.0,29.92,North,349,5.0,13.0,93,0.11,,,0.13,weatherlink.com 1.10,2013-04-24 08:07:00,
2013-04-24 03:22:00,42.6,41.0,29.93,NNW,340,5.0,11.0,93,0.12,,,0.14,weatherlink.com 1.10,2013-04-24 08:22:00,
2013-04-24 03:37:00,42.5,40.0,29.95,NNW,332,9.0,16.0,92,0.13,,,0.15,weatherlink.com 1.10,2013-04-24 08:37:00,
2013-04-24 03:52:00,42.3,40.0,29.94,NNW,344,7.0,15.0,92,0.11,,,0.18,weatherlink.com 1.10,2013-04-24 08:52:00,
2013-04-24 04:07:00,42.3,41.0,29.96,NNW,345,10.0,13.0,93,0.08,,,0.21,weatherlink.com 1.10,2013-04-24 09:07:00,
2013-04-24 04:22:00,42.3,41.0,29.96,NNW,333,7.0,13.0,94,0.13,,,0.27,weatherlink.com 1.10,2013-04-24 09:22:00,
2013-04-24 04:37:00,42.1,40.0,29.97,NNW,343,5.0,13.0,93,0.17,,,0.32,weatherlink.com 1.10,2013-04-24 09:37:00,
2013-04-24 04:52:00,42.2,41.0,29.97,NW,315,7.0,11.0,94,0.19,,,0.37,weatherlink.com 1.10,2013-04-24 09:52:00,
2013-04-24 05:07:00,42.0,40.0,29.96,NNW,330,5.0,12.0,93,0.18,,,0.39,weatherlink.com 1.10,2013-04-24 10:07:00,
2013-04-24 05:22:00,42.2,40.0,29.96,NNW,341,12.0,16.0,93,0.13,,,0.40,weatherlink.com 1.10,2013-04-24 10:22:00,
2013-04-24 05:37:00,42.1,40.0,29.98,NNW,342,10.0,17.0,92,0.07,,,0.40,weatherlink.com 1.10,2013-04-24 10:37:00,
2013-04-24 05:52:00,41.8,40.0,29.98,NW,323,14.0,16.0,92,0.05,,,0.42,weatherlink.com 1.10,2013-04-24 10:52:00,
2013-04-24 06:07:00,41.5,39.0,29.96,NNW,346,1.0,17.0,92,0.08,,,0.47,weatherlink.com 1.10,2013-04-24 11:07:00,
2013-04-24 06:22:00,41.3,40.0,29.95,NNW,348,5.0,10.0,93,0.14,,,0.54,weatherlink.com 1.10,2013-04-24 11:22:00,
2013-04-24 06:37:00,41.4,40.0,29.99,NW,309,11.0,14.0,93,0.19,,,0.59,weatherlink.com 1.10,2013-04-24 11:37:00,
2013-04-24 06:52:00,41.5,39.0,29.98,NNW,345,7.0,11.0,92,0.17,,,0.59,weatherlink.com 1.10,2013-04-24 11:52:00,
2013-04-24 07:07:00,41.8,40.0,30.00,NNW,335,5.0,9.0,92,0.12,,,0.59,weatherlink.com 1.10,2013-04-24 12:07:00,
2013-04-24 07:22:00,41.8,40.0,29.98,NNW,346,6.0,10.0,92,0.05,,,0.59,weatherlink.com 1.10,2013-04-24 12:22:00,
2013-04-24 07:37:00,42.0,40.0,30.02,NW,313,10.0,12.0,92,0.00,,,0.59,weatherlink.com 1.10,2013-04-24 12:37:00,
2013-04-24 07:52:00,42.4,40.0,30.05,NNW,334,10.0,17.0,90,0.00,,,0.59,weatherlink.com 1.10,2013-04-24 12:52:00,
2013-04-24 08:07:00,42.3,40.0,30.06,NNW,331,9.0,17.0,91,0.00,,,0.59,weatherlink.com 1.10,2013-04-24 13:07:00,
2013-04-24 08:22:00,42.3,40.0,30.07,NW,308,11.0,15.0,91,0.00,,,0.59,weatherlink.com 1.10,2013-04-24 13:22:00,
2013-04-24 08:37:00,42.1,40.0,30.08,WNW,294,7.0,17.0,91,0.00,,,0.59,weatherlink.com 1.10,2013-04-24 13:37:00,
2013-04-24 08:52:00,42.0,40.0,30.09,NW,321,5.0,17.0,92,0.00,,,0.59,weatherlink.com 1.10,2013-04-24 13:52:00,
2013-04-24 09:07:00,42.2,40.0,30.09,NNW,329,11.0,20.0,91,0.00,,,0.59,weatherlink.com 1.10,2013-04-24 14:07:00,
2013-04-24 09:22:00,42.7,41.0,30.07,NW,322,10.0,15.0,92,0.00,,,0.59,weatherlink.com 1.10,2013-04-24 14:22:00,
2013-04-24 09:37:00,43.3,40.0,30.08,NW,321,16.0,22.0,88,0.00,,,0.59,weatherlink.com 1.10,2013-04-24 14:37:00,
2013-04-24 09:52:00,43.3,40.0,30.08,NW,323,12.0,17.0,87,0.00,,,0.59,weatherlink.com 1.10,2013-04-24 14:52:00,
2013-04-24 10:22:00,43.6,40.0,30.10,NW,314,10.0,21.0,86,0.00,,,0.59,weatherlink.com 1.10,2013-04-24 15:22:00,
2013-04-24 10:37:00,43.5,40.0,30.11,NNW,331,11.0,20.0,86,0.00,,,0.59,weatherlink.com 1.10,2013-04-24 15:37:00,
2013-04-24 10:52:00,43.5,39.0,30.13,NNW,329,23.0,23.0,84,0.00,,,0.59,weatherlink.com 1.10,2013-04-24 15:52:00,
2013-04-24 11:07:00,43.1,39.0,30.15,NNW,338,10.0,20.0,84,0.00,,,0.59,weatherlink.com 1.10,2013-04-24 16:07:00,
2013-04-24 11:22:00,42.8,38.0,30.16,NW,311,12.0,18.0,82,0.00,,,0.59,weatherlink.com 1.10,2013-04-24 16:22:00,
2013-04-24 11:37:00,44.0,40.0,30.17,NNW,346,11.0,16.0,84,0.00,,,0.59,weatherlink.com 1.10,2013-04-24 16:37:00,
2013-04-24 11:52:00,43.4,38.0,30.17,NNW,346,9.0,20.0,81,0.00,,,0.59,weatherlink.com 1.10,2013-04-24 16:52:00,
2013-04-24 12:08:00,44.9,39.0,30.18,NW,310,10.0,17.0,81,0.00,,,0.59,weatherlink.com 1.10,2013-04-24 17:08:00,
2013-04-24 12:23:00,44.7,39.0,30.17,NNW,338,9.0,13.0,80,0.00,,,0.59,weatherlink.com 1.10,2013-04-24 17:23:00,
2013-04-24 12:38:00,45.0,39.0,30.17,NNW,345,7.0,16.0,79,0.00,,,0.59,weatherlink.com 1.10,2013-04-24 17:38:00,
2013-04-24 12:53:00,45.2,39.0,30.18,WNW,286,8.0,15.0,78,0.00,,,0.59,weatherlink.com 1.10,2013-04-24 17:53:00,
2013-04-24 13:08:00,45.8,39.0,30.18,NNW,344,7.0,15.0,76,0.00,,,0.59,weatherlink.com 1.10,2013-04-24 18:08:00,
2013-04-24 13:23:00,45.4,39.0,30.18,NNW,330,7.0,11.0,78,0.00,,,0.59,weatherlink.com 1.10,2013-04-24 18:23:00,
2013-04-24 13:38:00,45.4,38.0,30.19,North,349,8.0,17.0,76,0.00,,,0.59,weatherlink.com 1.10,2013-04-24 18:38:00,
2013-04-24 13:53:00,46.1,38.0,30.19,WNW,288,7.0,9.0,73,0.00,,,0.59,weatherlink.com 1.10,2013-04-24 18:53:00,
2013-04-24 14:23:00,47.0,38.0,30.20,NNW,342,5.0,11.0,72,0.00,,,0.59,weatherlink.com 1.10,2013-04-24 19:23:00,
2013-04-24 14:38:00,46.7,38.0,30.20,West,281,4.0,10.0,71,0.00,,,0.59,weatherlink.com 1.10,2013-04-24 19:38:00,
2013-04-24 14:53:00,46.7,38.0,30.21,NW,317,6.0,8.0,72,0.00,,,0.59,weatherlink.com 1.10,2013-04-24 19:53:00,
2013-04-24 15:08:00,47.6,39.0,30.21,WNW,293,5.0,9.0,71,0.00,,,0.59,weatherlink.com 1.10,2013-04-24 20:08:00,
2013-04-24 15:23:00,48.4,38.0,30.21,NNW,327,4.0,9.0,68,0.00,,,0.59,weatherlink.com 1.10,2013-04-24 20:23:00,
2013-04-24 15:38:00,48.6,38.0,30.21,West,267,6.0,9.0,68,0.00,,,0.59,weatherlink.com 1.10,2013-04-24 20:38:00,
2013-04-24 15:53:00,49.1,38.0,30.21,WNW,296,4.0,9.0,66,0.00,,,0.59,weatherlink.com 1.10,2013-04-24 20:53:00,
2013-04-24 16:08:00,50.6,39.0,30.20,NNW,331,9.0,11.0,65,0.00,,,0.59,weatherlink.com 1.10,2013-04-24 21:08:00,
2013-04-24 16:23:00,50.7,37.0,30.20,SW,223,4.0,11.0,60,0.00,,,0.59,weatherlink.com 1.10,2013-04-24 21:23:00,
2013-04-24 16:38:00,50.6,37.0,30.20,NW,322,5.0,11.0,59,0.00,,,0.59,weatherlink.com 1.10,2013-04-24 21:38:00,
2013-04-24 16:53:00,51.0,36.0,30.20,WNW,302,5.0,7.0,57,0.00,,,0.59,weatherlink.com 1.10,2013-04-24 21:53:00,
2013-04-24 17:08:00,50.8,37.0,30.20,NW,313,4.0,12.0,60,0.00,,,0.59,weatherlink.com 1.10,2013-04-24 22:08:00,
2013-04-24 17:23:00,50.9,37.0,30.20,NNW,333,4.0,13.0,59,0.00,,,0.59,weatherlink.com 1.10,2013-04-24 22:23:00,
2013-04-24 17:38:00,51.2,37.0,30.21,NNW,340,6.0,9.0,58,0.00,,,0.59,weatherlink.com 1.10,2013-04-24 22:38:00,
2013-04-24 17:53:00,51.3,39.0,30.21,NNW,329,4.0,9.0,62,0.00,,,0.59,weatherlink.com 1.10,2013-04-24 22:53:00,
2013-04-24 18:08:00,51.2,36.0,30.21,NW,304,2.0,7.0,56,0.00,,,0.59,weatherlink.com 1.10,2013-04-24 23:08:00,
2013-04-24 18:23:00,50.9,36.0,30.21,NW,319,2.0,8.0,57,0.00,,,0.59,weatherlink.com 1.10,2013-04-24 23:23:00,
2013-04-24 18:38:00,51.4,38.0,30.22,WSW,253,2.0,4.0,60,0.00,,,0.59,weatherlink.com 1.10,2013-04-24 23:38:00,
2013-04-24 18:53:00,51.0,37.0,30.22,WNW,294,2.0,5.0,59,0.00,,,0.59,weatherlink.com 1.10,2013-04-24 23:53:00,
2013-04-24 19:08:00,50.8,34.0,30.22,WNW,294,0.0,2.0,54,0.00,,,0.59,weatherlink.com 1.10,2013-04-25 00:08:00,
2013-04-24 19:23:00,50.1,35.0,30.23,WNW,294,0.0,1.0,56,0.00,,,0.59,weatherlink.com 1.10,2013-04-25 00:23:00,
2013-04-24 19:38:00,48.9,36.0,30.23,WNW,298,0.0,0.0,61,0.00,,,0.59,weatherlink.com 1.10,2013-04-25 00:38:00,
2013-04-24 19:53:00,46.9,37.0,30.23,WNW,298,1.0,2.0,69,0.00,,,0.59,weatherlink.com 1.10,2013-04-25 00:53:00,
2013-04-24 20:08:00,45.1,37.0,30.24,WNW,298,0.0,0.0,72,0.00,,,0.59,weatherlink.com 1.10,2013-04-25 01:08:00,
2013-04-24 20:23:00,43.6,37.0,30.24,WNW,298,0.0,0.0,77,0.00,,,0.59,weatherlink.com 1.10,2013-04-25 01:23:00,
2013-04-24 20:38:00,43.0,37.0,30.24,WNW,298,0.0,1.0,80,0.00,,,0.59,weatherlink.com 1.10,2013-04-25 01:38:00,
2013-04-24 20:53:00,41.7,37.0,30.24,WNW,298,0.0,0.0,83,0.00,,,0.59,weatherlink.com 1.10,2013-04-25 01:53:00,
2013-04-24 21:08:00,40.7,37.0,30.25,WNW,298,0.0,1.0,85,0.00,,,0.59,weatherlink.com 1.10,2013-04-25 02:08:00,
2013-04-24 21:23:00,40.1,37.0,30.26,WNW,298,0.0,2.0,87,0.00,,,0.59,weatherlink.com 1.10,2013-04-25 02:23:00,
2013-04-24 21:38:00,40.0,37.0,30.26,WNW,298,0.0,0.0,87,0.00,,,0.59,weatherlink.com 1.10,2013-04-25 02:38:00,
2013-04-24 21:53:00,39.7,37.0,30.26,WNW,298,0.0,0.0,89,0.00,,,0.59,weatherlink.com 1.10,2013-04-25 02:53:00,
2013-04-24 22:24:00,39.0,37.0,30.27,WNW,298,0.0,0.0,91,0.00,,,0.59,weatherlink.com 1.10,2013-04-25 03:24:00,
2013-04-24 22:39:00,38.7,36.0,30.27,WNW,298,0.0,0.0,91,0.00,,,0.59,weatherlink.com 1.10,2013-04-25 03:39:00,
2013-04-24 22:54:00,38.5,36.0,30.27,WNW,298,0.0,0.0,92,0.00,,,0.59,weatherlink.com 1.10,2013-04-25 03:54:00,
2013-04-24 23:09:00,38.3,36.0,30.27,WNW,298,0.0,2.0,92,0.00,,,0.59,weatherlink.com 1.10,2013-04-25 04:09:00,
2013-04-24 23:24:00,38.4,36.0,30.27,WNW,298,0.0,0.0,92,0.00,,,0.59,weatherlink.com 1.10,2013-04-25 04:24:00,
2013-04-24 23:39:00,38.0,36.0,30.27,WNW,298,1.0,1.0,92,0.00,,,0.59,weatherlink.com 1.10,2013-04-25 04:39:00,
2013-04-24 23:54:00,38.1,36.0,30.26,WNW,298,0.0,1.0,92,0.00,,,0.59,weatherlink.com 1.10,2013-04-25 04:54:00,